createdAt,value
2022-12-18T00:02:13.477Z,-3.30
2022-12-18T00:04:40.137Z,-3.70
2022-12-18T00:07:06.850Z,-3.30
2022-12-18T00:09:40.081Z,-3.40
2022-12-18T00:14:43.103Z,-3.30
2022-12-18T00:17:09.963Z,-3.00
2022-12-18T00:19:36.637Z,-2.90
2022-12-18T00:22:03.546Z,-3.40
2022-12-18T00:24:30.267Z,-3.50
2022-12-18T00:26:56.940Z,-3.40
2022-12-18T00:29:23.621Z,-3.30
2022-12-18T00:31:50.428Z,-3.50
2022-12-18T00:34:17.172Z,-3.80
2022-12-18T00:36:43.930Z,-4.40
2022-12-18T00:39:11.654Z,-4.60
2022-12-18T00:41:56.930Z,-4.60
2022-12-18T00:44:23.569Z,-4.70
2022-12-18T00:46:50.523Z,-4.60
2022-12-18T00:49:19.086Z,-4.30
2022-12-18T00:51:46.593Z,-4.00
2022-12-18T00:54:13.667Z,-4.00
2022-12-18T00:56:48.242Z,-3.90
2022-12-18T00:59:16.709Z,-3.90
2022-12-18T01:01:43.681Z,-3.90
2022-12-18T01:04:10.482Z,-4.20
2022-12-18T01:06:37.230Z,-4.60
2022-12-18T01:09:04.372Z,-4.70
2022-12-18T01:11:31.568Z,-4.60
2022-12-18T01:13:58.231Z,-4.70
2022-12-18T01:16:24.964Z,-4.20
2022-12-18T01:18:55.465Z,-4.30
2022-12-18T01:21:23.138Z,-4.50
2022-12-18T01:23:54.721Z,-4.60
2022-12-18T01:26:21.549Z,-5.00
2022-12-18T01:28:48.393Z,-5.00
2022-12-18T01:31:17.041Z,-4.50
2022-12-18T01:33:44.765Z,-4.10
2022-12-18T01:36:20.513Z,-3.80
2022-12-18T01:38:48.036Z,-3.80
2022-12-18T01:41:19.039Z,-3.70
2022-12-18T01:43:52.023Z,-3.50
2022-12-18T01:46:20.427Z,-3.40
2022-12-18T01:48:50.253Z,-3.60
2022-12-18T01:51:17.472Z,-4.10
2022-12-18T01:53:44.888Z,-4.60
2022-12-18T01:56:15.658Z,-5.60
2022-12-18T01:58:45.269Z,-5.80
2022-12-18T02:01:12.021Z,-5.40
2022-12-18T02:03:42.643Z,-4.80
2022-12-18T02:06:17.572Z,-4.50
2022-12-18T02:09:11.524Z,-5.10
2022-12-18T02:11:49.122Z,-5.80
2022-12-18T02:14:34.354Z,-6.10
2022-12-18T02:17:08.969Z,-6.30
2022-12-18T02:20:06.454Z,-6.30
2022-12-18T02:23:10.374Z,-6.30
2022-12-18T02:26:14.613Z,-6.30
2022-12-18T02:28:45.142Z,-5.60
2022-12-18T02:31:16.140Z,-5.40
2022-12-18T02:33:44.872Z,-6.00
2022-12-18T02:36:12.090Z,-6.20
2022-12-18T02:38:39.402Z,-6.30
2022-12-18T02:41:06.641Z,-6.10
2022-12-18T02:43:33.426Z,-5.40
2022-12-18T02:46:01.605Z,-4.80
2022-12-18T02:48:35.369Z,-4.50
2022-12-18T02:51:12.700Z,-5.20
2022-12-18T02:53:53.048Z,-5.70
2022-12-18T02:56:32.409Z,-5.90
2022-12-18T02:59:01.707Z,-5.60
2022-12-18T03:01:36.007Z,-4.90
2022-12-18T03:04:06.970Z,-5.00
2022-12-18T03:06:52.821Z,-4.70
2022-12-18T03:09:23.879Z,-4.70
2022-12-18T03:12:23.749Z,-4.60
2022-12-18T03:15:17.970Z,-4.40
2022-12-18T03:18:19.090Z,-4.40
2022-12-18T03:20:59.013Z,-4.40
2022-12-18T03:23:29.118Z,-4.40
2022-12-18T03:26:03.046Z,-4.30
2022-12-18T03:28:35.376Z,-4.40
2022-12-18T03:31:02.817Z,-4.20
2022-12-18T03:33:35.964Z,-4.20
2022-12-18T03:36:02.978Z,-4.20
2022-12-18T03:38:29.741Z,-4.30
2022-12-18T03:41:20.943Z,-4.00
2022-12-18T03:44:09.532Z,-4.40
2022-12-18T03:47:04.048Z,-4.10
2022-12-18T03:50:08.364Z,-4.00
2022-12-18T03:52:57.452Z,-4.30
2022-12-18T03:55:25.400Z,-4.30
2022-12-18T03:57:53.165Z,-4.30
2022-12-18T04:00:20.407Z,-4.40
2022-12-18T04:02:52.172Z,-4.70
2022-12-18T04:05:20.318Z,-5.00
2022-12-18T04:07:48.698Z,-4.50
2022-12-18T04:10:16.969Z,-4.30
2022-12-18T04:12:43.760Z,-4.50
2022-12-18T04:15:11.464Z,-4.50
2022-12-18T04:17:38.890Z,-4.70
2022-12-18T04:20:07.658Z,-4.60
2022-12-18T04:22:34.320Z,-4.70
2022-12-18T04:25:01.181Z,-4.60
2022-12-18T04:27:27.843Z,-4.20
2022-12-18T04:29:54.541Z,-4.20
2022-12-18T04:32:21.258Z,-4.40
2022-12-18T04:34:48.156Z,-4.40
2022-12-18T04:37:14.828Z,-4.50
2022-12-18T04:39:41.466Z,-4.50
2022-12-18T04:42:08.143Z,-4.40
2022-12-18T04:44:35.189Z,-4.00
2022-12-18T04:47:01.848Z,-4.20
2022-12-18T04:49:30.261Z,-4.30
2022-12-18T04:51:59.379Z,-4.10
2022-12-18T04:54:35.988Z,-3.90
2022-12-18T04:57:08.169Z,-3.90
2022-12-18T04:59:38.592Z,-3.70
2022-12-18T05:02:14.125Z,-3.90
2022-12-18T05:04:44.616Z,-4.00
2022-12-18T05:07:12.802Z,-4.00
2022-12-18T05:09:43.795Z,-3.70
2022-12-18T05:12:10.464Z,-3.60
2022-12-18T05:14:42.182Z,-3.50
2022-12-18T05:17:09.136Z,-3.60
2022-12-18T05:19:35.776Z,-3.70
2022-12-18T05:22:02.466Z,-3.40
2022-12-18T05:24:29.140Z,-3.50
2022-12-18T05:26:55.797Z,-4.00
2022-12-18T05:29:22.503Z,-3.90
2022-12-18T05:31:49.232Z,-3.70
2022-12-18T05:34:16.011Z,-3.50
2022-12-18T05:36:42.787Z,-3.20
2022-12-18T05:39:09.514Z,-3.20
2022-12-18T05:41:36.178Z,-3.10
2022-12-18T05:44:02.825Z,-2.70
2022-12-18T05:46:30.355Z,-3.00
2022-12-18T05:49:00.597Z,-3.60
2022-12-18T05:51:27.477Z,-3.70
2022-12-18T05:53:54.198Z,-3.10
2022-12-18T05:56:23.665Z,-3.00
2022-12-18T05:58:54.423Z,-3.30
2022-12-18T06:01:24.778Z,-3.20
2022-12-18T06:03:51.695Z,-3.30
2022-12-18T06:06:21.449Z,-3.30
2022-12-18T06:08:48.168Z,-3.30
2022-12-18T06:11:18.501Z,-3.10
2022-12-18T06:13:45.288Z,-3.20
2022-12-18T06:16:11.982Z,-3.30
2022-12-18T06:18:38.857Z,-3.20
2022-12-18T06:21:05.713Z,-3.40
2022-12-18T06:23:32.427Z,-3.10
2022-12-18T06:25:59.912Z,-2.90
2022-12-18T06:28:26.591Z,-2.80
2022-12-18T06:30:53.938Z,-2.80
2022-12-18T06:33:20.634Z,-2.60
2022-12-18T06:35:47.286Z,-2.80
2022-12-18T06:38:14.008Z,-2.90
2022-12-18T06:40:40.661Z,-2.90
2022-12-18T06:43:07.351Z,-3.20
2022-12-18T06:45:34.193Z,-3.30
2022-12-18T06:48:01.282Z,-3.40
2022-12-18T06:50:27.940Z,-3.50
2022-12-18T06:52:54.615Z,-3.20
2022-12-18T06:55:21.298Z,-3.00
2022-12-18T06:57:47.969Z,-3.00
2022-12-18T07:00:14.935Z,-3.20
2022-12-18T07:02:41.793Z,-3.50
2022-12-18T07:05:10.922Z,-3.30
2022-12-18T07:07:38.027Z,-3.20
2022-12-18T07:10:05.270Z,-3.40
2022-12-18T07:12:31.924Z,-3.60
2022-12-18T07:14:58.594Z,-3.40
2022-12-18T07:17:25.290Z,-3.40
2022-12-18T07:19:51.963Z,-3.00
2022-12-18T07:22:18.691Z,-3.10
2022-12-18T07:24:45.341Z,-3.00
2022-12-18T07:27:12.006Z,-2.70
2022-12-18T07:29:38.736Z,-3.00
2022-12-18T07:32:06.343Z,-3.40
2022-12-18T07:34:33.048Z,-3.30
2022-12-18T07:36:59.758Z,-3.20
2022-12-18T07:39:26.419Z,-3.00
2022-12-18T07:42:11.891Z,-3.00
2022-12-18T07:44:38.624Z,-2.40
2022-12-18T07:47:09.124Z,-2.30
2022-12-18T07:49:38.632Z,-2.40
2022-12-18T07:52:05.396Z,-2.90
2022-12-18T07:54:32.061Z,-2.70
2022-12-18T07:56:58.747Z,-2.30
2022-12-18T07:59:25.392Z,-2.20
2022-12-18T08:01:52.091Z,-3.00
2022-12-18T08:04:18.832Z,-3.50
2022-12-18T08:06:47.970Z,-2.90
2022-12-18T08:09:15.280Z,-2.70
2022-12-18T08:11:41.942Z,-3.10
2022-12-18T08:14:08.685Z,-2.70
2022-12-18T08:16:35.415Z,-2.50
2022-12-18T08:19:02.230Z,-2.20
2022-12-18T08:21:30.748Z,-2.50
2022-12-18T08:23:59.239Z,-3.30
2022-12-18T08:26:28.246Z,-3.40
2022-12-18T08:28:59.907Z,-3.30
2022-12-18T08:31:28.549Z,-3.00
2022-12-18T08:33:55.788Z,-2.80
2022-12-18T08:36:24.814Z,-2.50
2022-12-18T08:38:52.172Z,-2.30
2022-12-18T08:41:19.501Z,-2.70
2022-12-18T08:44:05.393Z,-2.40
2022-12-18T08:46:35.708Z,-2.20
2022-12-18T08:49:02.873Z,-2.10
2022-12-18T08:51:30.548Z,-2.20
2022-12-18T08:53:57.582Z,-1.90
2022-12-18T08:56:24.278Z,-2.20
2022-12-18T08:58:55.146Z,-2.80
2022-12-18T09:01:22.444Z,-2.40
2022-12-18T09:03:50.540Z,-2.40
2022-12-18T09:06:18.833Z,-2.20
2022-12-18T09:08:45.769Z,-2.10
2022-12-18T09:11:14.861Z,-1.80
2022-12-18T09:13:42.234Z,-1.70
2022-12-18T09:16:09.197Z,-1.50
2022-12-18T09:18:35.849Z,-1.20
2022-12-18T09:21:11.649Z,-1.10
2022-12-18T09:23:38.447Z,-1.00
2022-12-18T09:26:05.382Z,-0.90
2022-12-18T09:28:32.069Z,-0.70
2022-12-18T09:30:58.970Z,-0.70
2022-12-18T09:33:25.674Z,-1.00
2022-12-18T09:35:52.872Z,-0.90
2022-12-18T09:38:20.663Z,-0.90
2022-12-18T09:40:48.323Z,-0.80
2022-12-18T09:43:20.941Z,-1.00
2022-12-18T09:45:54.225Z,-0.70
2022-12-18T09:48:30.874Z,-0.50
2022-12-18T09:51:10.430Z,-0.70
2022-12-18T09:53:38.555Z,-0.40
2022-12-18T09:56:05.689Z,-0.40
2022-12-18T09:58:37.345Z,-0.70
2022-12-18T10:01:11.758Z,-1.00
2022-12-18T10:03:38.469Z,-1.00
2022-12-18T10:06:36.724Z,-0.80
2022-12-18T10:09:19.137Z,-0.50
2022-12-18T10:11:58.115Z,-0.20
2022-12-18T10:14:33.918Z,-0.10
2022-12-18T10:17:35.945Z,0.00
2022-12-18T10:20:17.262Z,0.00
2022-12-18T10:22:54.294Z,0.10
2022-12-18T10:25:49.477Z,0.30
2022-12-18T10:28:17.350Z,0.60
2022-12-18T10:30:44.488Z,0.40
2022-12-18T10:33:23.950Z,0.50
2022-12-18T10:35:51.661Z,0.40
2022-12-18T10:38:18.379Z,0.50
2022-12-18T10:40:55.607Z,0.40
2022-12-18T10:43:31.280Z,0.60
2022-12-18T10:46:10.176Z,1.10
2022-12-18T10:48:40.928Z,1.70
2022-12-18T10:51:12.065Z,1.70
2022-12-18T10:53:41.341Z,1.80
2022-12-18T10:56:08.176Z,1.90
2022-12-18T10:58:36.812Z,2.40
2022-12-18T11:01:13.959Z,2.90
2022-12-18T11:03:44.709Z,3.20
2022-12-18T11:06:16.324Z,3.20
2022-12-18T11:08:45.241Z,3.50
2022-12-18T11:11:23.098Z,3.50
2022-12-18T11:14:00.128Z,3.70
2022-12-18T11:16:27.768Z,3.60
2022-12-18T11:18:54.645Z,3.50
2022-12-18T11:21:21.328Z,3.40
2022-12-18T11:23:53.164Z,3.20
2022-12-18T11:26:20.886Z,2.70
2022-12-18T11:28:51.762Z,3.30
2022-12-18T11:31:29.336Z,3.30
2022-12-18T11:36:50.425Z,4.00
2022-12-18T11:39:31.274Z,4.10
2022-12-18T11:42:12.806Z,3.90
2022-12-18T11:45:07.520Z,4.40
2022-12-18T11:47:45.406Z,3.80
2022-12-18T11:50:50.869Z,3.90
2022-12-18T11:53:17.967Z,4.20
2022-12-18T11:56:05.101Z,4.00
2022-12-18T11:58:38.154Z,4.00
2022-12-18T12:01:08.326Z,3.80
2022-12-18T12:03:34.956Z,3.90
2022-12-18T12:06:07.845Z,4.10
2022-12-18T12:08:51.855Z,4.20
2022-12-18T12:11:44.662Z,4.10
2022-12-18T12:14:29.350Z,3.30
2022-12-18T12:17:07.705Z,2.50
2022-12-18T12:19:49.359Z,2.80
2022-12-18T12:22:53.520Z,3.20
2022-12-18T12:25:44.418Z,3.30
2022-12-18T12:28:39.275Z,3.00
2022-12-18T12:31:09.230Z,3.00
2022-12-18T12:33:50.730Z,2.70
2022-12-18T12:36:58.593Z,3.00
2022-12-18T12:39:35.434Z,2.70
2022-12-18T12:42:23.321Z,2.90
2022-12-18T12:44:56.044Z,3.00
2022-12-18T12:47:37.001Z,2.70
2022-12-18T12:50:08.204Z,2.40
2022-12-18T12:52:38.351Z,1.90
2022-12-18T12:55:10.308Z,1.90
2022-12-18T12:57:43.893Z,2.50
2022-12-18T13:00:14.526Z,2.90
2022-12-18T13:03:07.034Z,2.70
2022-12-18T13:05:55.400Z,2.60
2022-12-18T13:08:33.288Z,2.70
2022-12-18T13:11:20.790Z,2.90
2022-12-18T13:13:52.240Z,2.90
2022-12-18T13:16:23.703Z,2.60
2022-12-18T13:18:59.554Z,2.30
2022-12-18T13:21:30.446Z,2.70
2022-12-18T13:23:58.313Z,2.60
2022-12-18T13:26:29.094Z,2.90
2022-12-18T13:28:58.247Z,3.00
2022-12-18T13:31:30.946Z,3.10
2022-12-18T13:34:28.104Z,3.00
2022-12-18T13:37:00.425Z,3.30
2022-12-18T13:39:35.445Z,3.10
2022-12-18T13:42:05.930Z,2.80
2022-12-18T13:44:40.356Z,2.50
2022-12-18T13:47:38.561Z,2.10
2022-12-18T13:50:24.136Z,2.40
2022-12-18T13:52:52.065Z,2.40
2022-12-18T13:55:20.266Z,2.70
2022-12-18T13:57:47.104Z,2.70
2022-12-18T14:00:23.464Z,2.60
2022-12-18T14:02:51.319Z,2.90
2022-12-18T14:05:28.411Z,2.70
2022-12-18T14:07:56.110Z,2.50
2022-12-18T14:10:48.037Z,2.70
2022-12-18T14:13:11.795Z,2.60
2022-12-18T14:15:44.434Z,2.80
2022-12-18T14:18:39.310Z,2.60
2022-12-18T14:21:06.662Z,2.60
2022-12-18T14:23:42.419Z,2.80
2022-12-18T14:26:29.901Z,2.60
2022-12-18T14:28:57.744Z,2.30
2022-12-18T14:31:26.500Z,2.60
2022-12-18T14:33:53.569Z,2.60
2022-12-18T14:36:23.320Z,2.50
2022-12-18T14:38:58.236Z,2.60
2022-12-18T14:41:26.075Z,2.70
2022-12-18T14:43:54.866Z,2.40
2022-12-18T14:46:37.200Z,2.50
2022-12-18T14:49:28.380Z,2.10
2022-12-18T14:52:16.213Z,1.80
2022-12-18T14:54:47.411Z,1.90
2022-12-18T14:57:14.033Z,1.50
2022-12-18T14:59:40.742Z,1.90
2022-12-18T15:02:21.021Z,1.30
2022-12-18T15:04:47.906Z,1.30
2022-12-18T15:07:21.840Z,1.20
2022-12-18T15:10:03.836Z,1.50
2022-12-18T15:12:41.074Z,1.10
2022-12-18T15:15:39.085Z,1.10
2022-12-18T15:18:08.818Z,1.50
2022-12-18T15:20:53.701Z,1.40
2022-12-18T15:23:23.233Z,1.20
2022-12-18T15:26:05.118Z,1.40
2022-12-18T15:28:46.884Z,1.30
2022-12-18T15:31:13.496Z,1.30
2022-12-18T15:33:45.064Z,1.30
2022-12-18T15:36:13.755Z,1.50
2022-12-18T15:38:40.497Z,1.60
2022-12-18T15:41:14.338Z,1.60
2022-12-18T15:43:41.888Z,1.70
2022-12-18T15:46:25.398Z,1.80
2022-12-18T15:48:59.643Z,1.90
2022-12-18T15:51:36.618Z,1.90
2022-12-18T15:54:06.035Z,1.80
2022-12-18T15:56:51.385Z,1.70
2022-12-18T15:59:19.742Z,1.90
2022-12-18T16:01:48.458Z,2.10
2022-12-18T16:04:17.457Z,1.90
2022-12-18T16:07:13.452Z,2.10
2022-12-18T16:09:30.905Z,1.70
2022-12-18T16:11:57.651Z,1.60
2022-12-18T16:14:28.897Z,1.60
2022-12-18T16:17:01.267Z,1.90
2022-12-18T16:19:28.359Z,1.70
2022-12-18T16:21:56.585Z,1.90
2022-12-18T16:24:25.850Z,1.90
2022-12-18T16:26:53.682Z,2.00
2022-12-18T16:29:25.560Z,2.10
2022-12-18T16:31:55.262Z,2.00
2022-12-18T16:34:29.940Z,2.10
2022-12-18T16:37:05.212Z,2.20
2022-12-18T16:39:35.976Z,2.00
2022-12-18T16:42:09.600Z,2.20
2022-12-18T16:44:36.390Z,1.90
2022-12-18T16:47:04.552Z,2.00
2022-12-18T16:49:31.899Z,2.00
2022-12-18T16:51:58.757Z,2.20
2022-12-18T16:54:25.421Z,2.20
2022-12-18T16:56:52.266Z,2.30
2022-12-18T16:59:19.307Z,2.30
2022-12-18T17:01:46.892Z,2.10
2022-12-18T17:04:14.116Z,2.20
2022-12-18T17:06:43.852Z,2.20
2022-12-18T17:09:16.041Z,2.20
2022-12-18T17:11:42.946Z,2.00
2022-12-18T17:14:12.833Z,2.10
2022-12-18T17:16:39.522Z,2.10
2022-12-18T17:19:09.784Z,2.40
2022-12-18T17:21:40.326Z,2.10
2022-12-18T17:24:07.721Z,2.10
2022-12-18T17:26:34.396Z,1.60
2022-12-18T17:29:01.162Z,1.50
2022-12-18T17:31:30.013Z,1.50
2022-12-18T17:33:57.890Z,1.80
2022-12-18T17:36:28.342Z,2.20
2022-12-18T17:39:00.030Z,2.30
2022-12-18T17:41:27.608Z,2.40
2022-12-18T17:43:55.619Z,2.00
2022-12-18T17:46:22.659Z,1.80
2022-12-18T17:48:49.431Z,1.40
2022-12-18T17:51:17.135Z,0.70
2022-12-18T17:53:44.564Z,1.40
2022-12-18T17:56:13.644Z,1.20
2022-12-18T17:58:40.641Z,1.00
2022-12-18T18:01:07.916Z,1.70
2022-12-18T18:03:38.028Z,1.70
2022-12-18T18:06:05.425Z,1.60
2022-12-18T18:08:32.116Z,1.80
2022-12-18T18:11:21.636Z,1.90
2022-12-18T18:14:00.696Z,1.80
2022-12-18T18:16:38.778Z,1.60
2022-12-18T18:19:07.945Z,1.90
2022-12-18T18:21:35.269Z,2.30
2022-12-18T18:24:03.056Z,2.20
2022-12-18T18:26:33.620Z,2.40
2022-12-18T18:29:01.259Z,2.10
2022-12-18T18:31:31.029Z,2.20
2022-12-18T18:33:57.740Z,2.50
2022-12-18T18:36:24.629Z,2.40
2022-12-18T18:38:52.061Z,2.10
2022-12-18T18:41:19.209Z,2.40
2022-12-18T18:43:45.970Z,2.10
2022-12-18T18:46:16.390Z,2.30
2022-12-18T18:48:43.785Z,2.60
2022-12-18T18:51:20.667Z,2.30
2022-12-18T18:53:50.846Z,2.10
2022-12-18T18:57:03.385Z,2.40
2022-12-18T18:59:06.475Z,2.40
2022-12-18T19:01:33.255Z,2.40
2022-12-18T19:04:03.311Z,2.60
2022-12-18T19:06:30.044Z,2.40
2022-12-18T19:08:58.479Z,2.10
2022-12-18T19:11:44.489Z,2.10
2022-12-18T19:14:13.154Z,2.10
2022-12-18T19:16:39.961Z,2.40
2022-12-18T19:19:07.446Z,1.80
2022-12-18T19:21:34.843Z,2.00
2022-12-18T19:24:02.648Z,2.10
2022-12-18T19:26:29.633Z,2.30
2022-12-18T19:29:07.490Z,2.30
2022-12-18T19:31:36.407Z,2.30
2022-12-18T19:34:05.045Z,1.50
2022-12-18T19:36:33.086Z,2.00
2022-12-18T19:39:01.141Z,1.00
2022-12-18T19:41:31.287Z,0.90
2022-12-18T19:44:00.118Z,0.80
2022-12-18T19:46:28.996Z,1.00
2022-12-18T19:48:55.792Z,1.00
2022-12-18T19:51:24.979Z,0.80
2022-12-18T19:53:58.056Z,0.60
2022-12-18T19:56:27.531Z,1.10
2022-12-18T19:58:54.849Z,1.20
2022-12-18T20:01:23.855Z,1.10
2022-12-18T20:03:52.246Z,1.50
2022-12-18T20:06:35.855Z,2.10
2022-12-18T20:09:05.737Z,2.30
2022-12-18T20:11:36.395Z,2.30
2022-12-18T20:14:08.974Z,1.80
2022-12-18T20:16:35.858Z,2.00
2022-12-18T20:19:02.677Z,2.40
2022-12-18T20:21:29.619Z,2.40
2022-12-18T20:23:56.333Z,2.00
2022-12-18T20:26:23.907Z,2.30
2022-12-18T20:28:50.669Z,2.10
2022-12-18T20:31:17.439Z,2.00
2022-12-18T20:33:47.676Z,2.20
2022-12-18T20:36:21.418Z,2.10
2022-12-18T20:38:50.806Z,1.80
2022-12-18T20:41:21.173Z,1.30
2022-12-18T20:43:48.140Z,1.30
2022-12-18T20:46:17.059Z,1.30
2022-12-18T20:48:44.737Z,1.70
2022-12-18T20:51:13.746Z,1.40
2022-12-18T20:53:40.959Z,1.70
2022-12-18T20:56:11.538Z,1.90
2022-12-18T20:58:38.386Z,2.20
2022-12-18T21:01:16.773Z,2.30
2022-12-18T21:03:45.879Z,2.30
2022-12-18T21:06:14.009Z,2.30
2022-12-18T21:08:40.879Z,2.40
2022-12-18T21:11:38.463Z,2.50
2022-12-18T21:14:10.782Z,2.30
2022-12-18T21:16:37.693Z,2.30
2022-12-18T21:19:04.370Z,2.30
2022-12-18T21:21:38.506Z,2.20
2022-12-18T21:24:06.888Z,1.10
2022-12-18T21:26:33.788Z,1.80
2022-12-18T21:29:03.053Z,1.20
2022-12-18T21:31:32.344Z,1.80
2022-12-18T21:34:02.154Z,1.30
2022-12-18T21:36:29.975Z,0.90
2022-12-18T21:38:57.997Z,1.40
2022-12-18T21:41:44.885Z,0.60
2022-12-18T21:44:13.956Z,1.80
2022-12-18T21:46:44.111Z,2.10
2022-12-18T21:49:14.303Z,2.30
2022-12-18T21:51:41.336Z,2.20
2022-12-18T21:54:07.988Z,2.30
2022-12-18T21:56:49.313Z,2.30
2022-12-18T21:59:24.869Z,2.40
2022-12-18T22:01:52.576Z,2.30
2022-12-18T22:04:20.115Z,2.50
2022-12-18T22:06:48.425Z,2.70
2022-12-18T22:09:17.642Z,2.50
2022-12-18T22:11:44.828Z,1.40
2022-12-18T22:14:11.837Z,0.90
2022-12-18T22:16:38.491Z,1.10
2022-12-18T22:19:06.552Z,2.00
2022-12-18T22:21:35.531Z,2.00
2022-12-18T22:24:13.110Z,1.60
2022-12-18T22:26:40.467Z,2.00
2022-12-18T22:29:26.374Z,2.40
2022-12-18T22:31:53.018Z,2.10
2022-12-18T22:34:23.007Z,2.70
2022-12-18T22:36:50.677Z,2.20
2022-12-18T22:39:23.381Z,2.10
2022-12-18T22:41:51.344Z,2.20
2022-12-18T22:44:18.262Z,2.10
2022-12-18T22:46:56.234Z,2.70
2022-12-18T22:49:33.931Z,3.00
2022-12-18T22:52:02.828Z,3.20
2022-12-18T22:54:29.577Z,3.20
2022-12-18T22:56:56.823Z,2.70
2022-12-18T22:59:23.998Z,2.80
2022-12-18T23:01:58.805Z,3.40
2022-12-18T23:04:30.022Z,3.80
2022-12-18T23:07:02.656Z,3.20
2022-12-18T23:09:29.352Z,3.30
2022-12-18T23:11:56.004Z,3.50
2022-12-18T23:14:22.656Z,3.80
2022-12-18T23:16:49.319Z,4.40
2022-12-18T23:19:18.136Z,4.40
2022-12-18T23:21:44.805Z,4.50
2022-12-18T23:24:11.468Z,4.50
2022-12-18T23:26:38.337Z,4.60
2022-12-18T23:29:05.519Z,4.50
2022-12-18T23:31:34.755Z,4.30
2022-12-18T23:34:02.673Z,4.10
2022-12-18T23:36:30.510Z,3.80
2022-12-18T23:39:01.131Z,4.10
2022-12-18T23:41:32.815Z,4.30
2022-12-18T23:44:00.387Z,4.30
2022-12-18T23:46:32.155Z,4.30
2022-12-18T23:49:00.125Z,4.10
2022-12-18T23:51:27.292Z,3.80
2022-12-18T23:53:55.931Z,4.00
2022-12-18T23:56:22.710Z,4.30
2022-12-18T23:58:52.069Z,3.50
